sensor_id;sensor_type;location;lat;lon;timestamp;P1;durP1;ratioP1;P2;durP2;ratioP2
42760;SDS011;31672;47.638;19.026;2023-11-19T00:02:44;15.37;;;5.20;;
42760;SDS011;31672;47.638;19.026;2023-11-19T00:07:48;8.37;;;3.43;;
42760;SDS011;31672;47.638;19.026;2023-11-19T00:12:51;10.37;;;4.03;;
42760;SDS011;31672;47.638;19.026;2023-11-19T00:17:55;33.60;;;8.73;;
42760;SDS011;31672;47.638;19.026;2023-11-19T00:23:06;8.40;;;3.17;;
42760;SDS011;31672;47.638;19.026;2023-11-19T00:28:10;8.87;;;4.00;;
42760;SDS011;31672;47.638;19.026;2023-11-19T00:33:14;21.20;;;7.37;;
42760;SDS011;31672;47.638;19.026;2023-11-19T00:38:18;7.47;;;2.87;;
42760;SDS011;31672;47.638;19.026;2023-11-19T00:43:21;7.83;;;3.20;;
42760;SDS011;31672;47.638;19.026;2023-11-19T00:48:25;10.77;;;3.63;;
42760;SDS011;31672;47.638;19.026;2023-11-19T00:53:30;14.67;;;4.83;;
42760;SDS011;31672;47.638;19.026;2023-11-19T00:58:34;5.97;;;3.50;;
42760;SDS011;31672;47.638;19.026;2023-11-19T01:03:39;6.17;;;3.00;;
42760;SDS011;31672;47.638;19.026;2023-11-19T01:08:43;5.47;;;2.80;;
42760;SDS011;31672;47.638;19.026;2023-11-19T01:13:47;5.40;;;2.80;;
42760;SDS011;31672;47.638;19.026;2023-11-19T01:18:52;7.57;;;3.20;;
42760;SDS011;31672;47.638;19.026;2023-11-19T01:24:12;9.73;;;3.43;;
42760;SDS011;31672;47.638;19.026;2023-11-19T01:29:17;6.50;;;2.87;;
42760;SDS011;31672;47.638;19.026;2023-11-19T01:34:20;8.27;;;3.37;;
42760;SDS011;31672;47.638;19.026;2023-11-19T01:39:24;9.93;;;3.73;;
42760;SDS011;31672;47.638;19.026;2023-11-19T01:44:27;6.00;;;2.93;;
42760;SDS011;31672;47.638;19.026;2023-11-19T01:49:31;7.63;;;2.77;;
42760;SDS011;31672;47.638;19.026;2023-11-19T01:54:35;7.00;;;3.40;;
42760;SDS011;31672;47.638;19.026;2023-11-19T01:59:39;11.07;;;4.10;;
42760;SDS011;31672;47.638;19.026;2023-11-19T02:04:45;8.07;;;3.77;;
42760;SDS011;31672;47.638;19.026;2023-11-19T02:09:54;13.47;;;4.17;;
42760;SDS011;31672;47.638;19.026;2023-11-19T02:14:59;9.50;;;4.30;;
42760;SDS011;31672;47.638;19.026;2023-11-19T02:20:04;9.03;;;3.30;;
42760;SDS011;31672;47.638;19.026;2023-11-19T02:25:23;10.30;;;3.87;;
42760;SDS011;31672;47.638;19.026;2023-11-19T02:30:35;9.40;;;3.60;;
42760;SDS011;31672;47.638;19.026;2023-11-19T02:35:39;12.47;;;4.80;;
42760;SDS011;31672;47.638;19.026;2023-11-19T02:40:43;10.87;;;4.17;;
42760;SDS011;31672;47.638;19.026;2023-11-19T02:45:47;6.20;;;3.23;;
42760;SDS011;31672;47.638;19.026;2023-11-19T02:50:50;11.50;;;4.57;;
42760;SDS011;31672;47.638;19.026;2023-11-19T02:55:55;7.93;;;3.73;;
42760;SDS011;31672;47.638;19.026;2023-11-19T03:01:05;8.17;;;3.33;;
42760;SDS011;31672;47.638;19.026;2023-11-19T03:06:26;7.22;;;3.15;;
42760;SDS011;31672;47.638;19.026;2023-11-19T03:11:31;5.77;;;3.00;;
42760;SDS011;31672;47.638;19.026;2023-11-19T03:16:35;8.73;;;3.20;;
42760;SDS011;31672;47.638;19.026;2023-11-19T03:21:44;26.23;;;7.73;;
42760;SDS011;31672;47.638;19.026;2023-11-19T03:26:48;24.70;;;7.83;;
42760;SDS011;31672;47.638;19.026;2023-11-19T03:31:55;22.50;;;8.63;;
42760;SDS011;31672;47.638;19.026;2023-11-19T03:36:59;22.87;;;7.83;;
42760;SDS011;31672;47.638;19.026;2023-11-19T03:42:02;18.13;;;7.60;;
42760;SDS011;31672;47.638;19.026;2023-11-19T03:47:07;8.67;;;4.20;;
42760;SDS011;31672;47.638;19.026;2023-11-19T03:52:11;17.87;;;5.17;;
42760;SDS011;31672;47.638;19.026;2023-11-19T04:02:26;9.13;;;3.73;;
42760;SDS011;31672;47.638;19.026;2023-11-19T04:07:30;12.43;;;4.33;;
42760;SDS011;31672;47.638;19.026;2023-11-19T04:12:35;9.30;;;3.57;;
42760;SDS011;31672;47.638;19.026;2023-11-19T04:17:39;9.57;;;3.50;;
42760;SDS011;31672;47.638;19.026;2023-11-19T04:22:42;5.77;;;3.20;;
42760;SDS011;31672;47.638;19.026;2023-11-19T04:27:47;11.43;;;5.43;;
42760;SDS011;31672;47.638;19.026;2023-11-19T04:32:52;11.10;;;4.73;;
42760;SDS011;31672;47.638;19.026;2023-11-19T04:37:57;10.13;;;4.40;;
42760;SDS011;31672;47.638;19.026;2023-11-19T04:43:00;6.63;;;3.13;;
42760;SDS011;31672;47.638;19.026;2023-11-19T04:48:04;6.53;;;3.50;;
42760;SDS011;31672;47.638;19.026;2023-11-19T04:53:08;7.00;;;3.00;;
42760;SDS011;31672;47.638;19.026;2023-11-19T04:58:13;8.53;;;3.23;;
42760;SDS011;31672;47.638;19.026;2023-11-19T05:03:16;7.50;;;3.30;;
42760;SDS011;31672;47.638;19.026;2023-11-19T05:08:20;6.97;;;2.93;;
42760;SDS011;31672;47.638;19.026;2023-11-19T05:13:25;7.60;;;3.00;;
42760;SDS011;31672;47.638;19.026;2023-11-19T05:18:28;6.23;;;2.97;;
42760;SDS011;31672;47.638;19.026;2023-11-19T05:23:32;14.63;;;4.37;;
42760;SDS011;31672;47.638;19.026;2023-11-19T05:28:40;14.20;;;5.77;;
42760;SDS011;31672;47.638;19.026;2023-11-19T05:33:43;10.80;;;4.93;;
42760;SDS011;31672;47.638;19.026;2023-11-19T05:38:47;11.30;;;4.77;;
42760;SDS011;31672;47.638;19.026;2023-11-19T05:43:51;12.20;;;5.73;;
42760;SDS011;31672;47.638;19.026;2023-11-19T05:48:55;17.33;;;6.83;;
42760;SDS011;31672;47.638;19.026;2023-11-19T05:53:58;20.13;;;8.10;;
42760;SDS011;31672;47.638;19.026;2023-11-19T05:59:02;16.73;;;7.70;;
42760;SDS011;31672;47.638;19.026;2023-11-19T06:04:10;15.13;;;7.07;;
42760;SDS011;31672;47.638;19.026;2023-11-19T06:09:14;18.03;;;6.80;;
42760;SDS011;31672;47.638;19.026;2023-11-19T06:14:18;18.10;;;6.60;;
42760;SDS011;31672;47.638;19.026;2023-11-19T06:19:21;16.70;;;7.20;;
42760;SDS011;31672;47.638;19.026;2023-11-19T06:24:30;11.93;;;4.93;;
42760;SDS011;31672;47.638;19.026;2023-11-19T06:29:34;15.50;;;6.33;;
42760;SDS011;31672;47.638;19.026;2023-11-19T06:34:37;12.20;;;5.40;;
42760;SDS011;31672;47.638;19.026;2023-11-19T06:39:41;14.07;;;6.93;;
42760;SDS011;31672;47.638;19.026;2023-11-19T06:44:45;16.00;;;8.03;;
42760;SDS011;31672;47.638;19.026;2023-11-19T06:49:48;14.23;;;6.63;;
42760;SDS011;31672;47.638;19.026;2023-11-19T06:54:52;15.67;;;6.90;;
42760;SDS011;31672;47.638;19.026;2023-11-19T07:00:10;14.13;;;6.20;;
42760;SDS011;31672;47.638;19.026;2023-11-19T07:05:15;8.77;;;4.37;;
42760;SDS011;31672;47.638;19.026;2023-11-19T07:10:18;8.33;;;5.07;;
42760;SDS011;31672;47.638;19.026;2023-11-19T07:15:22;13.63;;;5.90;;
42760;SDS011;31672;47.638;19.026;2023-11-19T07:20:25;13.53;;;6.03;;
42760;SDS011;31672;47.638;19.026;2023-11-19T07:25:29;11.77;;;5.47;;
42760;SDS011;31672;47.638;19.026;2023-11-19T07:30:33;14.63;;;6.27;;
42760;SDS011;31672;47.638;19.026;2023-11-19T07:35:36;14.27;;;5.53;;
42760;SDS011;31672;47.638;19.026;2023-11-19T07:40:40;13.63;;;5.90;;
42760;SDS011;31672;47.638;19.026;2023-11-19T07:45:59;18.77;;;6.87;;
42760;SDS011;31672;47.638;19.026;2023-11-19T07:51:04;12.13;;;5.93;;
42760;SDS011;31672;47.638;19.026;2023-11-19T07:56:09;12.97;;;6.17;;
42760;SDS011;31672;47.638;19.026;2023-11-19T08:01:18;11.60;;;5.57;;
42760;SDS011;31672;47.638;19.026;2023-11-19T08:06:22;16.43;;;7.97;;
42760;SDS011;31672;47.638;19.026;2023-11-19T08:11:25;21.03;;;8.63;;
42760;SDS011;31672;47.638;19.026;2023-11-19T08:16:29;23.47;;;8.63;;
42760;SDS011;31672;47.638;19.026;2023-11-19T08:21:33;20.60;;;8.83;;
42760;SDS011;31672;47.638;19.026;2023-11-19T08:26:36;23.07;;;10.50;;
42760;SDS011;31672;47.638;19.026;2023-11-19T08:31:40;24.13;;;10.70;;
42760;SDS011;31672;47.638;19.026;2023-11-19T08:36:45;25.97;;;11.27;;
42760;SDS011;31672;47.638;19.026;2023-11-19T08:41:49;26.10;;;10.40;;
42760;SDS011;31672;47.638;19.026;2023-11-19T08:46:53;25.70;;;10.67;;
42760;SDS011;31672;47.638;19.026;2023-11-19T08:51:56;22.07;;;11.53;;
42760;SDS011;31672;47.638;19.026;2023-11-19T08:57:00;21.43;;;10.10;;
42760;SDS011;31672;47.638;19.026;2023-11-19T09:02:04;25.67;;;10.13;;
42760;SDS011;31672;47.638;19.026;2023-11-19T09:07:09;15.67;;;7.80;;
42760;SDS011;31672;47.638;19.026;2023-11-19T09:12:13;22.63;;;11.50;;
42760;SDS011;31672;47.638;19.026;2023-11-19T09:17:17;26.27;;;12.20;;
42760;SDS011;31672;47.638;19.026;2023-11-19T09:22:21;22.30;;;11.07;;
42760;SDS011;31672;47.638;19.026;2023-11-19T09:27:25;25.53;;;11.03;;
42760;SDS011;31672;47.638;19.026;2023-11-19T09:32:28;28.40;;;14.13;;
42760;SDS011;31672;47.638;19.026;2023-11-19T09:37:32;25.83;;;12.17;;
42760;SDS011;31672;47.638;19.026;2023-11-19T09:42:41;26.07;;;11.47;;
42760;SDS011;31672;47.638;19.026;2023-11-19T09:47:48;27.87;;;11.97;;
42760;SDS011;31672;47.638;19.026;2023-11-19T09:52:56;20.47;;;11.07;;
42760;SDS011;31672;47.638;19.026;2023-11-19T09:57:59;19.93;;;9.60;;
42760;SDS011;31672;47.638;19.026;2023-11-19T10:03:05;19.23;;;8.37;;
42760;SDS011;31672;47.638;19.026;2023-11-19T10:08:14;21.33;;;11.10;;
42760;SDS011;31672;47.638;19.026;2023-11-19T10:13:18;21.00;;;10.57;;
42760;SDS011;31672;47.638;19.026;2023-11-19T10:18:25;20.80;;;10.13;;
42760;SDS011;31672;47.638;19.026;2023-11-19T10:23:29;21.70;;;10.83;;
42760;SDS011;31672;47.638;19.026;2023-11-19T10:28:39;22.23;;;11.17;;
42760;SDS011;31672;47.638;19.026;2023-11-19T10:33:48;22.80;;;10.80;;
42760;SDS011;31672;47.638;19.026;2023-11-19T10:38:52;17.87;;;9.13;;
42760;SDS011;31672;47.638;19.026;2023-11-19T10:43:58;19.63;;;10.43;;
42760;SDS011;31672;47.638;19.026;2023-11-19T10:49:03;16.33;;;8.23;;
42760;SDS011;31672;47.638;19.026;2023-11-19T10:54:06;18.87;;;9.23;;
42760;SDS011;31672;47.638;19.026;2023-11-19T10:59:12;18.53;;;8.70;;
42760;SDS011;31672;47.638;19.026;2023-11-19T11:04:24;22.60;;;10.43;;
42760;SDS011;31672;47.638;19.026;2023-11-19T11:09:30;16.90;;;7.63;;
42760;SDS011;31672;47.638;19.026;2023-11-19T11:14:34;19.57;;;8.30;;
42760;SDS011;31672;47.638;19.026;2023-11-19T11:19:41;19.93;;;9.50;;
42760;SDS011;31672;47.638;19.026;2023-11-19T11:30:24;16.43;;;8.50;;
42760;SDS011;31672;47.638;19.026;2023-11-19T11:35:48;19.33;;;9.23;;
42760;SDS011;31672;47.638;19.026;2023-11-19T11:57:06;14.53;;;7.10;;
42760;SDS011;31672;47.638;19.026;2023-11-19T12:02:15;18.90;;;8.80;;
42760;SDS011;31672;47.638;19.026;2023-11-19T12:07:22;15.10;;;6.87;;
42760;SDS011;31672;47.638;19.026;2023-11-19T12:12:27;17.80;;;7.93;;
42760;SDS011;31672;47.638;19.026;2023-11-19T12:17:36;50.00;;;28.87;;
42760;SDS011;31672;47.638;19.026;2023-11-19T12:22:47;20.63;;;10.87;;
42760;SDS011;31672;47.638;19.026;2023-11-19T12:27:52;17.80;;;8.43;;
42760;SDS011;31672;47.638;19.026;2023-11-19T12:32:57;14.57;;;7.30;;
42760;SDS011;31672;47.638;19.026;2023-11-19T12:38:02;14.50;;;7.33;;
42760;SDS011;31672;47.638;19.026;2023-11-19T12:43:05;17.33;;;8.60;;
42760;SDS011;31672;47.638;19.026;2023-11-19T12:48:09;17.50;;;8.93;;
42760;SDS011;31672;47.638;19.026;2023-11-19T12:53:14;13.30;;;7.20;;
42760;SDS011;31672;47.638;19.026;2023-11-19T13:03:39;11.02;;;6.68;;
42760;SDS011;31672;47.638;19.026;2023-11-19T13:08:43;13.43;;;6.43;;
42760;SDS011;31672;47.638;19.026;2023-11-19T13:13:59;20.63;;;11.40;;
42760;SDS011;31672;47.638;19.026;2023-11-19T13:19:08;20.67;;;12.13;;
42760;SDS011;31672;47.638;19.026;2023-11-19T13:24:13;73.90;;;32.93;;
42760;SDS011;31672;47.638;19.026;2023-11-19T13:29:17;123.60;;;54.50;;
42760;SDS011;31672;47.638;19.026;2023-11-19T13:34:21;31.37;;;17.43;;
42760;SDS011;31672;47.638;19.026;2023-11-19T13:39:24;22.63;;;11.57;;
42760;SDS011;31672;47.638;19.026;2023-11-19T13:44:28;18.90;;;10.13;;
42760;SDS011;31672;47.638;19.026;2023-11-19T13:49:32;24.97;;;13.90;;
42760;SDS011;31672;47.638;19.026;2023-11-19T13:54:36;21.83;;;10.50;;
42760;SDS011;31672;47.638;19.026;2023-11-19T13:59:40;16.03;;;6.50;;
42760;SDS011;31672;47.638;19.026;2023-11-19T14:04:44;15.97;;;6.80;;
42760;SDS011;31672;47.638;19.026;2023-11-19T14:09:48;16.27;;;7.47;;
42760;SDS011;31672;47.638;19.026;2023-11-19T14:14:52;13.97;;;7.40;;
42760;SDS011;31672;47.638;19.026;2023-11-19T14:19:57;22.47;;;8.73;;
42760;SDS011;31672;47.638;19.026;2023-11-19T14:25:01;18.70;;;8.50;;
42760;SDS011;31672;47.638;19.026;2023-11-19T14:30:08;15.80;;;8.40;;
42760;SDS011;31672;47.638;19.026;2023-11-19T14:35:14;16.47;;;7.70;;
42760;SDS011;31672;47.638;19.026;2023-11-19T14:40:18;18.20;;;9.07;;
42760;SDS011;31672;47.638;19.026;2023-11-19T14:45:22;16.50;;;8.73;;
42760;SDS011;31672;47.638;19.026;2023-11-19T14:50:25;16.93;;;7.67;;
42760;SDS011;31672;47.638;19.026;2023-11-19T14:55:29;20.07;;;10.07;;
42760;SDS011;31672;47.638;19.026;2023-11-19T15:00:33;15.47;;;7.43;;
42760;SDS011;31672;47.638;19.026;2023-11-19T15:05:37;16.10;;;7.53;;
42760;SDS011;31672;47.638;19.026;2023-11-19T15:10:41;18.97;;;8.17;;
42760;SDS011;31672;47.638;19.026;2023-11-19T15:15:45;18.50;;;9.93;;
42760;SDS011;31672;47.638;19.026;2023-11-19T15:20:49;23.57;;;11.73;;
42760;SDS011;31672;47.638;19.026;2023-11-19T15:25:53;25.20;;;13.43;;
42760;SDS011;31672;47.638;19.026;2023-11-19T15:30:56;20.13;;;10.50;;
42760;SDS011;31672;47.638;19.026;2023-11-19T15:36:01;19.00;;;10.37;;
42760;SDS011;31672;47.638;19.026;2023-11-19T15:41:10;16.23;;;7.73;;
42760;SDS011;31672;47.638;19.026;2023-11-19T15:46:16;13.43;;;7.03;;
42760;SDS011;31672;47.638;19.026;2023-11-19T15:51:20;15.33;;;8.80;;
42760;SDS011;31672;47.638;19.026;2023-11-19T15:56:23;29.70;;;11.70;;
42760;SDS011;31672;47.638;19.026;2023-11-19T16:01:27;21.90;;;10.57;;
42760;SDS011;31672;47.638;19.026;2023-11-19T16:06:33;25.07;;;12.87;;
42760;SDS011;31672;47.638;19.026;2023-11-19T16:11:38;18.70;;;10.47;;
42760;SDS011;31672;47.638;19.026;2023-11-19T16:16:57;40.70;;;16.90;;
42760;SDS011;31672;47.638;19.026;2023-11-19T16:22:01;36.27;;;16.17;;
42760;SDS011;31672;47.638;19.026;2023-11-19T16:27:14;24.33;;;11.50;;
42760;SDS011;31672;47.638;19.026;2023-11-19T16:32:22;26.73;;;13.43;;
42760;SDS011;31672;47.638;19.026;2023-11-19T16:37:27;28.07;;;12.33;;
42760;SDS011;31672;47.638;19.026;2023-11-19T16:42:30;32.93;;;15.80;;
42760;SDS011;31672;47.638;19.026;2023-11-19T16:47:34;38.13;;;17.20;;
42760;SDS011;31672;47.638;19.026;2023-11-19T16:52:38;31.03;;;13.97;;
42760;SDS011;31672;47.638;19.026;2023-11-19T16:57:45;32.37;;;15.60;;
42760;SDS011;31672;47.638;19.026;2023-11-19T17:02:49;28.53;;;13.20;;
42760;SDS011;31672;47.638;19.026;2023-11-19T17:07:54;26.27;;;12.40;;
42760;SDS011;31672;47.638;19.026;2023-11-19T17:12:57;32.30;;;14.63;;
42760;SDS011;31672;47.638;19.026;2023-11-19T17:18:01;34.67;;;14.57;;
42760;SDS011;31672;47.638;19.026;2023-11-19T17:23:04;29.03;;;15.10;;
42760;SDS011;31672;47.638;19.026;2023-11-19T17:28:08;38.10;;;18.47;;
42760;SDS011;31672;47.638;19.026;2023-11-19T17:33:13;37.43;;;16.57;;
42760;SDS011;31672;47.638;19.026;2023-11-19T17:38:17;24.27;;;12.27;;
42760;SDS011;31672;47.638;19.026;2023-11-19T17:43:25;33.60;;;15.00;;
42760;SDS011;31672;47.638;19.026;2023-11-19T17:48:30;28.73;;;13.60;;
42760;SDS011;31672;47.638;19.026;2023-11-19T17:53:35;22.90;;;10.40;;
42760;SDS011;31672;47.638;19.026;2023-11-19T17:58:40;19.53;;;9.57;;
42760;SDS011;31672;47.638;19.026;2023-11-19T18:03:44;18.77;;;10.23;;
42760;SDS011;31672;47.638;19.026;2023-11-19T18:08:47;25.67;;;12.00;;
42760;SDS011;31672;47.638;19.026;2023-11-19T18:13:51;34.57;;;12.93;;
42760;SDS011;31672;47.638;19.026;2023-11-19T18:18:57;43.03;;;17.47;;
42760;SDS011;31672;47.638;19.026;2023-11-19T18:24:01;44.63;;;19.10;;
42760;SDS011;31672;47.638;19.026;2023-11-19T18:29:06;46.20;;;20.97;;
42760;SDS011;31672;47.638;19.026;2023-11-19T18:34:10;48.20;;;19.33;;
42760;SDS011;31672;47.638;19.026;2023-11-19T18:39:14;31.87;;;13.90;;
42760;SDS011;31672;47.638;19.026;2023-11-19T18:44:18;24.77;;;11.27;;
42760;SDS011;31672;47.638;19.026;2023-11-19T18:49:22;17.23;;;8.43;;
42760;SDS011;31672;47.638;19.026;2023-11-19T18:54:27;18.37;;;9.23;;
42760;SDS011;31672;47.638;19.026;2023-11-19T18:59:31;29.07;;;13.10;;
42760;SDS011;31672;47.638;19.026;2023-11-19T19:04:34;16.13;;;8.10;;
42760;SDS011;31672;47.638;19.026;2023-11-19T19:09:39;12.53;;;6.30;;
42760;SDS011;31672;47.638;19.026;2023-11-19T19:14:43;14.20;;;6.10;;
42760;SDS011;31672;47.638;19.026;2023-11-19T19:19:47;14.20;;;6.63;;
42760;SDS011;31672;47.638;19.026;2023-11-19T19:24:51;23.03;;;10.23;;
42760;SDS011;31672;47.638;19.026;2023-11-19T19:29:54;26.90;;;12.97;;
42760;SDS011;31672;47.638;19.026;2023-11-19T19:34:59;24.97;;;13.17;;
42760;SDS011;31672;47.638;19.026;2023-11-19T19:40:03;29.90;;;13.33;;
42760;SDS011;31672;47.638;19.026;2023-11-19T19:45:28;11.53;;;6.83;;
42760;SDS011;31672;47.638;19.026;2023-11-19T19:50:34;20.60;;;8.53;;
42760;SDS011;31672;47.638;19.026;2023-11-19T19:55:38;16.73;;;8.33;;
42760;SDS011;31672;47.638;19.026;2023-11-19T20:00:41;17.10;;;9.50;;
42760;SDS011;31672;47.638;19.026;2023-11-19T20:05:45;17.93;;;8.93;;
42760;SDS011;31672;47.638;19.026;2023-11-19T20:10:49;18.50;;;8.63;;
42760;SDS011;31672;47.638;19.026;2023-11-19T20:15:53;18.07;;;8.20;;
42760;SDS011;31672;47.638;19.026;2023-11-19T20:20:57;17.53;;;10.27;;
42760;SDS011;31672;47.638;19.026;2023-11-19T20:26:03;21.60;;;11.00;;
42760;SDS011;31672;47.638;19.026;2023-11-19T20:31:07;30.50;;;13.30;;
42760;SDS011;31672;47.638;19.026;2023-11-19T20:36:10;47.73;;;17.73;;
42760;SDS011;31672;47.638;19.026;2023-11-19T20:41:18;30.60;;;14.20;;
42760;SDS011;31672;47.638;19.026;2023-11-19T20:46:22;23.67;;;11.60;;
42760;SDS011;31672;47.638;19.026;2023-11-19T20:51:26;23.13;;;10.70;;
42760;SDS011;31672;47.638;19.026;2023-11-19T20:56:34;21.30;;;10.40;;
42760;SDS011;31672;47.638;19.026;2023-11-19T21:01:38;28.23;;;12.33;;
42760;SDS011;31672;47.638;19.026;2023-11-19T21:06:41;34.37;;;13.67;;
42760;SDS011;31672;47.638;19.026;2023-11-19T21:11:50;24.27;;;11.73;;
42760;SDS011;31672;47.638;19.026;2023-11-19T21:16:53;29.07;;;14.30;;
42760;SDS011;31672;47.638;19.026;2023-11-19T21:21:57;38.40;;;16.40;;
42760;SDS011;31672;47.638;19.026;2023-11-19T21:27:01;20.60;;;10.83;;
42760;SDS011;31672;47.638;19.026;2023-11-19T21:32:05;22.83;;;12.03;;
42760;SDS011;31672;47.638;19.026;2023-11-19T21:37:09;25.57;;;11.83;;
42760;SDS011;31672;47.638;19.026;2023-11-19T21:42:13;26.53;;;12.70;;
42760;SDS011;31672;47.638;19.026;2023-11-19T21:47:17;23.40;;;11.30;;
42760;SDS011;31672;47.638;19.026;2023-11-19T21:52:20;22.63;;;11.90;;
42760;SDS011;31672;47.638;19.026;2023-11-19T21:57:24;24.47;;;11.60;;
42760;SDS011;31672;47.638;19.026;2023-11-19T22:02:28;25.83;;;12.40;;
42760;SDS011;31672;47.638;19.026;2023-11-19T22:07:33;25.33;;;12.37;;
42760;SDS011;31672;47.638;19.026;2023-11-19T22:12:37;22.50;;;10.47;;
42760;SDS011;31672;47.638;19.026;2023-11-19T22:17:43;44.93;;;18.33;;
42760;SDS011;31672;47.638;19.026;2023-11-19T22:22:47;27.53;;;14.50;;
42760;SDS011;31672;47.638;19.026;2023-11-19T22:27:51;32.50;;;15.23;;
42760;SDS011;31672;47.638;19.026;2023-11-19T22:32:56;25.30;;;13.63;;
42760;SDS011;31672;47.638;19.026;2023-11-19T22:37:59;30.13;;;13.90;;
42760;SDS011;31672;47.638;19.026;2023-11-19T22:43:03;30.83;;;14.90;;
42760;SDS011;31672;47.638;19.026;2023-11-19T22:48:07;28.63;;;14.77;;
42760;SDS011;31672;47.638;19.026;2023-11-19T22:53:11;30.83;;;14.70;;
42760;SDS011;31672;47.638;19.026;2023-11-19T22:58:15;33.30;;;14.07;;
42760;SDS011;31672;47.638;19.026;2023-11-19T23:03:20;32.40;;;13.90;;
42760;SDS011;31672;47.638;19.026;2023-11-19T23:08:23;29.77;;;14.03;;
42760;SDS011;31672;47.638;19.026;2023-11-19T23:13:28;30.33;;;13.90;;
42760;SDS011;31672;47.638;19.026;2023-11-19T23:18:31;33.47;;;13.83;;
42760;SDS011;31672;47.638;19.026;2023-11-19T23:23:36;26.20;;;11.73;;
42760;SDS011;31672;47.638;19.026;2023-11-19T23:28:40;28.47;;;14.53;;
42760;SDS011;31672;47.638;19.026;2023-11-19T23:33:45;22.37;;;11.53;;
42760;SDS011;31672;47.638;19.026;2023-11-19T23:38:48;24.43;;;11.07;;
42760;SDS011;31672;47.638;19.026;2023-11-19T23:43:52;24.13;;;12.90;;
42760;SDS011;31672;47.638;19.026;2023-11-19T23:48:56;26.53;;;12.30;;
42760;SDS011;31672;47.638;19.026;2023-11-19T23:54:02;29.40;;;13.10;;
42760;SDS011;31672;47.638;19.026;2023-11-19T23:59:05;24.07;;;11.63;;
